Terminal Aerodrome Forecast
Issued by NWS Mobile, AL

Home | Current Version | Previous Version | Text Only | Print | Product List | Glossary On
Versions: 1 2 3 4 5 6 7 8 9 10 11 12 13 14 15 16 17 18 19 20 21 22 23 24 25 26 27 28 29
000
FTUS44 KMOB 251123
TAFMOB
TAF
KMOB 251123Z 2512/2612 24005KT P6SM VCTS OVC012CB
     FM251600 21014KT P6SM VCSH SCT009 OVC025
     FM252000 21010KT P6SM SCT030 OVC050
      TEMPO 2520/2524 3SM TSRA BKN020CB
     FM260400 23005KT 4SM BR BKN010=

USA.gov is the U.S. government's official web portal to all federal, state and local government web resources and services.